Time;durP1;ratioP1;P1;durP2;ratioP2;P2;SDS_P1;SDS_P2;PMS_P1;PMS_P2;Temp;Humidity;BMP_temperature;BMP_pressure;BME280_temperature;BME280_humidity;BME280_pressure;Samples;Min_cycle;Max_cycle;Signal;HPM_P1;HPM_P2
2022/03/16 00:02:24;;;;;;;212.70;45.00;;;;;;;2.22;87.46;102695.47;5054299;28;20478;-49
2022/03/16 00:04:53;;;;;;;154.47;36.33;;;;;;;2.17;88.60;102704.59;5054571;28;20813;-47
2022/03/16 00:07:23;;;;;;;227.87;47.40;;;;;;;2.11;90.69;102708.44;5054155;28;20489;-46
2022/03/16 00:09:51;;;;;;;220.10;44.73;;;;;;;2.07;90.14;102713.97;5053847;28;20508;-47
2022/03/16 00:12:19;;;;;;;172.13;40.90;;;;;;;2.03;90.60;102720.38;5054022;28;20450;-51
2022/03/16 00:14:47;;;;;;;185.47;42.03;;;;;;;2.04;88.83;102711.53;5053961;28;20814;-48
2022/03/16 00:17:16;;;;;;;258.50;45.63;;;;;;;1.98;89.52;102707.50;5054051;28;20441;-51
2022/03/16 00:19:45;;;;;;;190.57;39.27;;;;;;;1.95;89.50;102712.94;5053623;28;20459;-46
2022/03/16 00:22:13;;;;;;;195.40;39.77;;;;;;;1.97;88.48;102708.41;5052650;28;20530;-47
2022/03/16 00:24:42;;;;;;;271.53;52.10;;;;;;;1.91;89.00;102714.06;5053836;28;21061;-46
2022/03/16 00:27:10;;;;;;;222.40;45.30;;;;;;;1.87;89.90;102723.09;5053751;28;20522;-47
2022/03/16 00:29:37;;;;;;;306.67;51.73;;;;;;;1.88;88.65;102722.13;5053355;28;20459;-48
2022/03/16 00:32:06;;;;;;;208.33;41.50;;;;;;;1.87;89.21;102730.13;5053772;28;20438;-48
2022/03/16 00:34:33;;;;;;;207.10;39.80;;;;;;;1.87;88.81;102725.72;5053658;28;20461;-46
2022/03/16 00:37:01;;;;;;;194.47;41.80;;;;;;;1.82;89.75;102730.44;5053822;28;20427;-46
2022/03/16 00:39:29;;;;;;;159.03;43.10;;;;;;;1.66;90.03;102725.22;5053274;28;20889;-49
2022/03/16 00:41:58;;;;;;;212.73;42.67;;;;;;;1.67;88.91;102737.41;5053325;28;20426;-47
2022/03/16 00:44:27;;;;;;;266.77;44.80;;;;;;;1.72;86.85;102734.53;5031141;28;20512;-48
2022/03/16 00:46:55;;;;;;;190.90;40.17;;;;;;;1.76;85.92;102738.69;4993807;28;20882;-45
2022/03/16 00:49:23;;;;;;;261.50;48.13;;;;;;;1.76;86.67;102741.31;4959885;28;20495;-48
2022/03/16 00:51:50;;;;;;;287.77;47.47;;;;;;;1.73;87.58;102741.50;4961082;28;20542;-45
2022/03/16 00:54:18;;;;;;;260.03;48.37;;;;;;;1.72;87.18;102745.03;4970638;28;20538;-46
2022/03/16 00:56:45;;;;;;;270.13;48.37;;;;;;;1.67;88.12;102747.94;4971808;28;20441;-46
2022/03/16 00:59:15;;;;;;;435.60;64.00;;;;;;;1.64;87.67;102748.13;4971487;28;20875;-46
2022/03/16 01:01:42;;;;;;;330.57;56.73;;;;;;;1.62;88.28;102751.78;4971486;28;20455;-48
2022/03/16 01:04:10;;;;;;;362.33;58.83;;;;;;;1.59;86.43;102754.59;4971549;28;20535;-46
2022/03/16 01:06:38;;;;;;;323.87;60.63;;;;;;;1.56;84.68;102760.88;4971402;28;20439;-45
2022/03/16 01:09:05;;;;;;;363.97;59.73;;;;;;;1.53;84.84;102758.41;4971162;28;20468;-45
2022/03/16 01:11:33;;;;;;;236.73;51.20;;;;;;;1.54;83.97;102756.66;4971328;28;20434;-46
2022/03/16 01:14:01;;;;;;;239.23;54.77;;;;;;;1.54;80.64;102757.50;4971403;28;20562;-45
2022/03/16 01:16:32;;;;;;;231.70;54.47;;;;;;;1.61;79.67;102760.63;4971419;28;20435;-47
2022/03/16 01:19:00;;;;;;;238.97;49.87;;;;;;;1.64;80.42;102763.88;4971116;28;20829;-50
2022/03/16 01:21:28;;;;;;;260.60;53.60;;;;;;;1.64;80.36;102766.53;4970986;28;20439;-45
2022/03/16 01:23:55;;;;;;;167.93;48.40;;;;;;;1.62;81.48;102765.78;4971366;28;20483;-49
2022/03/16 01:26:23;;;;;;;191.67;49.30;;;;;;;1.56;83.00;102762.66;4971140;28;20530;-46
2022/03/16 01:28:51;;;;;;;204.13;48.70;;;;;;;1.51;84.72;102755.03;4970980;28;20549;-47
2022/03/16 01:31:19;;;;;;;240.70;51.83;;;;;;;1.48;84.23;102757.84;4970917;28;20530;-46
2022/03/16 01:33:48;;;;;;;194.87;49.73;;;;;;;1.43;83.95;102749.41;4970733;28;20589;-46
2022/03/16 01:36:17;;;;;;;215.60;48.47;;;;;;;1.41;84.25;102742.50;4971016;28;20534;-50
2022/03/16 01:38:44;;;;;;;271.27;53.93;;;;;;;1.28;85.52;102737.13;4970491;28;20470;-48
2022/03/16 01:41:12;;;;;;;130.50;42.27;;;;;;;1.30;84.82;102742.28;4970630;28;20438;-49
2022/03/16 01:43:41;;;;;;;155.87;41.43;;;;;;;1.20;83.89;102757.72;5027793;28;20484;-48
2022/03/16 01:46:09;;;;;;;209.30;46.60;;;;;;;1.22;85.02;102771.66;5053659;28;20435;-48
2022/03/16 01:48:37;;;;;;;229.50;47.53;;;;;;;1.01;87.99;102763.19;5051735;28;21119;-46
2022/03/16 01:51:06;;;;;;;132.63;40.10;;;;;;;1.07;86.29;102757.59;5052291;28;20431;-51
2022/03/16 01:53:33;;;;;;;204.20;46.07;;;;;;;0.99;86.17;102749.28;5052257;28;20973;-47
2022/03/16 01:56:01;;;;;;;111.97;38.93;;;;;;;1.03;85.79;102760.47;5052222;28;20514;-46
2022/03/16 01:58:29;;;;;;;221.23;44.87;;;;;;;0.98;85.36;102763.38;5051777;28;20533;-49
2022/03/16 02:00:57;;;;;;;108.17;39.40;;;;;;;1.00;85.33;102756.25;5051815;28;20514;-46
2022/03/16 02:03:25;;;;;;;108.73;37.53;;;;;;;1.04;84.48;102759.53;5052181;28;20475;-50
2022/03/16 02:05:53;;;;;;;116.57;42.30;;;;;;;1.09;83.99;102765.38;5052118;28;20427;-46
2022/03/16 02:08:22;;;;;;;180.90;43.87;;;;;;;1.07;85.50;102759.38;5051481;28;20455;-46
2022/03/16 02:10:49;;;;;;;189.20;42.17;;;;;;;1.05;86.22;102748.94;5051787;28;20780;-46
2022/03/16 02:13:17;;;;;;;233.27;45.77;;;;;;;1.02;87.23;102749.09;5051766;28;20483;-50
2022/03/16 02:15:44;;;;;;;184.53;43.37;;;;;;;1.03;87.33;102755.22;5052033;28;20433;-46
2022/03/16 02:18:13;;;;;;;269.80;49.17;;;;;;;0.97;89.28;102755.56;5051486;28;20505;-47
2022/03/16 02:20:40;;;;;;;386.43;61.67;;;;;;;0.94;89.40;102753.09;5051604;28;20972;-44
2022/03/16 02:23:09;;;;;;;201.13;44.17;;;;;;;0.94;89.38;102763.59;5051629;28;20542;-46
2022/03/16 02:25:49;;;;;;;402.63;55.97;;;;;;;0.85;89.49;102762.34;5051789;28;20428;-49
2022/03/16 02:28:17;;;;;;;298.63;52.27;;;;;;;0.86;89.91;102777.19;5051247;28;20545;-48
2022/03/16 02:30:45;;;;;;;284.80;52.40;;;;;;;0.87;90.23;102778.84;5051653;28;20519;-51
2022/03/16 02:33:12;;;;;;;277.43;48.13;;;;;;;0.90;88.06;102776.06;5051662;28;20451;-46
2022/03/16 02:35:40;;;;;;;111.20;37.87;;;;;;;0.95;88.92;102776.66;5051586;28;20522;-47
2022/03/16 02:38:10;;;;;;;388.50;51.60;;;;;;;0.91;90.53;102774.28;5051145;28;20518;-50
2022/03/16 02:40:38;;;;;;;283.23;47.20;;;;;;;0.84;91.67;102778.16;5051293;28;20514;-46
2022/03/16 02:43:05;;;;;;;183.77;39.70;;;;;;;0.79;92.37;102777.59;5051568;28;20467;-45
2022/03/16 02:45:33;;;;;;;237.87;44.27;;;;;;;0.79;91.59;102777.59;5050923;28;20434;-50
2022/03/16 02:48:00;;;;;;;235.47;46.30;;;;;;;0.79;90.55;102782.84;5050979;28;20522;-45
2022/03/16 02:50:28;;;;;;;239.50;43.83;;;;;;;0.73;92.37;102786.66;5051248;28;20529;-49
2022/03/16 02:52:56;;;;;;;209.93;42.30;;;;;;;0.71;92.65;102785.91;5051375;28;20457;-50
2022/03/16 02:55:44;;;;;;;242.67;46.83;;;;;;;0.64;91.80;102783.66;5051618;28;20894;-50
2022/03/16 02:58:12;;;;;;;243.37;45.83;;;;;;;0.60;91.72;102782.16;5050873;28;20463;-46
2022/03/16 03:00:40;;;;;;;304.60;51.83;;;;;;;0.61;91.10;102786.47;5051229;28;20518;-47
2022/03/16 03:03:08;;;;;;;255.47;48.50;;;;;;;0.61;90.18;102779.44;5051347;28;20481;-46
2022/03/16 03:05:36;;;;;;;231.97;46.23;;;;;;;0.61;90.37;102775.97;5051243;28;20802;-49
2022/03/16 03:08:05;;;;;;;203.10;47.37;;;;;;;0.63;89.69;102780.19;5050711;28;20423;-49
2022/03/16 03:10:32;;;;;;;336.33;51.63;;;;;;;0.63;89.23;102772.31;5051278;28;20776;-49
2022/03/16 03:13:02;;;;;;;188.43;45.50;;;;;;;0.64;89.31;102774.03;5051332;28;20527;-47
2022/03/16 03:15:29;;;;;;;287.43;63.10;;;;;;;0.65;88.87;102772.25;5051268;28;20481;-47
2022/03/16 03:17:57;;;;;;;203.53;44.67;;;;;;;0.65;89.25;102772.25;5050641;28;20439;-46
2022/03/16 03:20:25;;;;;;;207.77;46.70;;;;;;;0.65;88.60;102769.63;5051194;28;20435;-50
2022/03/16 03:22:52;;;;;;;266.50;53.23;;;;;;;0.59;89.77;102759.44;5051232;28;20487;-48
2022/03/16 03:25:20;;;;;;;194.67;45.40;;;;;;;0.57;89.31;102768.25;5051240;28;20605;-47
2022/03/16 03:27:47;;;;;;;223.23;52.07;;;;;;;0.57;88.00;102769.19;5051272;28;20535;-45
2022/03/16 03:30:17;;;;;;;173.00;45.53;;;;;;;0.60;87.46;102769.84;5050352;28;20471;-49
2022/03/16 03:32:44;;;;;;;270.23;52.90;;;;;;;0.57;85.70;102769.19;5050855;28;20527;-49
2022/03/16 03:35:12;;;;;;;281.93;55.93;;;;;;;0.64;84.68;102775.78;5051207;28;20481;-47
2022/03/16 03:37:39;;;;;;;325.87;58.53;;;;;;;0.63;84.65;102769.69;5051202;28;20441;-45
2022/03/16 03:40:08;;;;;;;171.17;44.63;;;;;;;0.65;83.26;102775.72;5050634;28;20473;-49
2022/03/16 03:42:35;;;;;;;160.07;46.67;;;;;;;0.74;81.37;102777.00;5050871;28;20514;-46
2022/03/16 03:45:04;;;;;;;189.13;43.27;;;;;;;0.80;81.30;102784.53;5050825;28;20522;-48
2022/03/16 03:47:33;;;;;;;234.03;48.33;;;;;;;0.84;82.02;102786.06;5050979;28;20514;-47
2022/03/16 03:50:00;;;;;;;144.27;43.23;;;;;;;0.90;81.48;102794.44;5050432;28;20462;-49
2022/03/16 03:52:28;;;;;;;222.03;52.23;;;;;;;0.99;79.93;102798.34;5050618;28;20438;-50
2022/03/16 03:54:56;;;;;;;126.87;43.60;;;;;;;1.05;80.11;102796.22;5050947;28;20912;-50
2022/03/16 03:57:23;;;;;;;261.50;48.97;;;;;;;1.10;81.02;102806.50;5052005;28;20790;-47
2022/03/16 03:59:51;;;;;;;324.50;51.47;;;;;;;1.10;82.30;102799.47;5053882;28;20467;-45
2022/03/16 04:02:18;;;;;;;243.33;44.50;;;;;;;1.10;83.36;102798.63;5054439;28;20431;-50
2022/03/16 04:04:48;;;;;;;178.10;39.77;;;;;;;1.19;81.92;102798.09;5054299;28;20455;-52
2022/03/16 04:07:15;;;;;;;230.57;50.63;;;;;;;1.25;81.47;102802.16;5054354;28;20461;-47
2022/03/16 04:09:43;;;;;;;271.87;49.80;;;;;;;1.25;82.57;102797.75;5053754;28;20466;-46
2022/03/16 04:12:11;;;;;;;219.80;45.00;;;;;;;1.29;82.20;102809.78;5053871;28;20430;-47
2022/03/16 04:14:38;;;;;;;237.70;45.80;;;;;;;1.30;83.17;102813.25;5054321;28;20562;-47
2022/03/16 04:17:06;;;;;;;254.67;44.07;;;;;;;1.26;84.79;102814.34;5054024;28;20430;-46
2022/03/16 04:19:34;;;;;;;225.33;44.43;;;;;;;1.21;85.42;102809.38;5053586;28;20837;-46
2022/03/16 04:22:03;;;;;;;299.17;50.43;;;;;;;1.22;83.71;102807.59;5053862;28;20510;-46
2022/03/16 04:24:31;;;;;;;181.17;40.90;;;;;;;1.26;82.79;102803.84;5053835;28;20546;-51
2022/03/16 04:27:00;;;;;;;108.67;35.57;;;;;;;1.30;82.77;102797.47;5053810;28;20447;-47
2022/03/16 04:29:27;;;;;;;137.97;41.20;;;;;;;1.35;82.12;102798.91;5053489;28;20554;-48
2022/03/16 04:31:55;;;;;;;187.87;44.70;;;;;;;1.38;81.70;102804.00;5053810;28;20427;-47
2022/03/16 04:34:22;;;;;;;240.47;46.20;;;;;;;1.35;83.20;102808.56;5053877;28;20451;-48
2022/03/16 04:36:50;;;;;;;234.93;50.70;;;;;;;1.32;83.00;102804.34;5053678;28;20433;-45
2022/03/16 04:39:19;;;;;;;330.90;64.37;;;;;;;1.36;82.76;102815.53;5053195;28;21013;-45
2022/03/16 04:41:47;;;;;;;117.87;39.27;;;;;;;1.42;80.88;102808.16;5053327;28;20467;-45
2022/03/16 04:44:14;;;;;;;232.93;49.07;;;;;;;1.48;79.31;102804.31;5053410;28;20471;-45
2022/03/16 04:46:42;;;;;;;178.07;51.00;;;;;;;1.49;80.35;102801.59;5053419;28;20926;-45
2022/03/16 04:49:10;;;;;;;180.83;49.67;;;;;;;1.52;79.98;102798.78;5053094;28;20459;-50
2022/03/16 04:51:37;;;;;;;183.13;48.93;;;;;;;1.56;79.91;102788.94;5053243;28;20437;-48
2022/03/16 04:54:05;;;;;;;92.33;41.03;;;;;;;1.63;78.33;102788.50;5053295;28;20541;-51
2022/03/16 04:56:35;;;;;;;140.17;45.77;;;;;;;1.68;79.09;102790.88;5053543;28;20562;-48
2022/03/16 04:59:02;;;;;;;270.20;59.30;;;;;;;1.67;79.30;102789.19;5053526;28;20551;-43
2022/03/16 05:01:30;;;;;;;182.60;50.67;;;;;;;1.71;79.28;102790.69;5053135;28;20529;-43
2022/03/16 05:03:58;;;;;;;188.13;48.03;;;;;;;1.71;79.00;102795.09;5053255;28;20585;-44
2022/03/16 05:06:26;;;;;;;324.63;58.43;;;;;;;1.73;77.55;102798.50;5053040;28;20849;-43
2022/03/16 05:08:54;;;;;;;197.20;51.10;;;;;;;1.70;77.66;102798.69;5052464;28;20459;-43
2022/03/16 05:11:22;;;;;;;278.13;56.47;;;;;;;1.76;76.08;102809.69;5053107;28;20474;-46
2022/03/16 05:13:51;;;;;;;273.53;56.20;;;;;;;1.78;75.14;102797.28;5053060;28;20546;-47
2022/03/16 05:16:19;;;;;;;297.73;62.53;;;;;;;1.85;74.40;102797.78;5052950;28;20546;-43
2022/03/16 05:18:46;;;;;;;331.07;61.97;;;;;;;1.83;74.82;102803.13;5052358;28;20462;-44
2022/03/16 05:21:14;;;;;;;267.83;60.20;;;;;;;1.90;74.01;102811.50;5052896;28;20438;-44
2022/03/16 05:23:42;;;;;;;239.70;57.17;;;;;;;1.89;73.65;102820.31;5052988;28;20542;-43
2022/03/16 05:26:09;;;;;;;260.10;59.90;;;;;;;1.91;73.43;102821.09;5053011;28;20525;-47
2022/03/16 05:28:37;;;;;;;230.87;59.77;;;;;;;1.96;72.11;102829.56;5052193;28;20463;-44
2022/03/16 05:31:06;;;;;;;315.40;61.93;;;;;;;1.97;72.57;102829.47;5052520;28;20441;-47
2022/03/16 05:33:34;;;;;;;254.07;60.30;;;;;;;1.97;74.64;102826.00;5052427;28;20458;-45
2022/03/16 05:36:02;;;;;;;286.63;58.10;;;;;;;1.98;74.95;102822.41;5052385;28;21080;-46
2022/03/16 05:38:31;;;;;;;257.13;60.67;;;;;;;1.99;73.66;102827.59;5052413;28;20542;-45
2022/03/16 05:40:58;;;;;;;171.53;58.23;;;;;;;2.03;74.20;102828.28;5052426;28;20431;-46
2022/03/16 05:43:26;;;;;;;345.23;76.00;;;;;;;1.97;75.32;102828.63;5052374;28;20555;-44
2022/03/16 05:45:54;;;;;;;140.37;51.90;;;;;;;2.05;73.93;102831.66;5052254;28;21121;-45
2022/03/16 05:48:23;;;;;;;236.87;60.50;;;;;;;2.09;73.23;102843.69;5051995;28;20538;-44
2022/03/16 05:50:51;;;;;;;226.20;55.30;;;;;;;2.09;73.61;102848.97;5052115;28;20894;-44
2022/03/16 05:53:18;;;;;;;272.50;59.00;;;;;;;2.06;75.16;102844.69;5052286;28;20454;-45
2022/03/16 05:55:46;;;;;;;152.90;51.13;;;;;;;2.14;74.12;102847.75;5052255;28;20471;-46
2022/03/16 05:58:14;;;;;;;228.77;55.23;;;;;;;2.20;72.25;102842.13;5051734;28;20534;-44
2022/03/16 06:00:42;;;;;;;136.67;49.37;;;;;;;2.24;74.19;102851.50;5051897;28;20525;-47
2022/03/16 06:03:11;;;;;;;176.23;51.77;;;;;;;2.24;75.07;102853.28;5052153;28;20494;-45
2022/03/16 06:05:40;;;;;;;179.43;52.20;;;;;;;2.31;75.39;102857.25;5052254;28;20431;-44
2022/03/16 06:08:08;;;;;;;166.23;47.63;;;;;;;2.39;74.77;102856.81;5051438;28;20526;-43
2022/03/16 06:10:36;;;;;;;238.83;55.77;;;;;;;2.23;78.19;102865.63;5051761;28;20527;-46
2022/03/16 06:13:06;;;;;;;185.53;51.17;;;;;;;2.31;76.88;102865.16;5051810;28;20457;-43
2022/03/16 06:15:40;;;;;;;151.90;46.20;;;;;;;2.32;78.07;102866.88;5052409;28;20605;-43
2022/03/16 06:18:08;;;;;;;146.90;51.00;;;;;;;2.34;77.77;102875.50;5051430;28;20514;-46
2022/03/16 06:20:36;;;;;;;134.43;45.03;;;;;;;2.41;77.29;102878.63;5051003;28;20455;-46
2022/03/16 06:23:06;;;;;;;153.90;44.00;;;;;;;2.50;77.34;102878.09;5051807;28;20538;-44
2022/03/16 06:25:39;;;;;;;140.60;48.03;;;;;;;2.59;76.31;102891.53;5051753;28;20829;-46
2022/03/16 06:28:06;;;;;;;89.80;42.20;;;;;;;2.60;79.44;102895.84;5051475;28;20416;-44
2022/03/16 06:30:34;;;;;;;166.63;47.50;;;;;;;2.67;79.40;102898.97;5051505;28;20471;-47
2022/03/16 06:33:02;;;;;;;223.00;48.00;;;;;;;2.65;83.17;102906.13;5051713;28;20550;-45
2022/03/16 06:35:30;;;;;;;167.97;46.63;;;;;;;2.72;82.01;102900.38;5051778;28;20455;-44
2022/03/16 06:37:57;;;;;;;225.67;49.50;;;;;;;2.79;80.47;102908.75;5051068;28;20431;-46
2022/03/16 06:40:26;;;;;;;144.57;52.03;;;;;;;2.83;83.61;102904.16;5051409;28;20930;-44
2022/03/16 06:42:56;;;;;;;233.10;51.10;;;;;;;2.83;84.02;102898.88;5051554;28;20546;-48
2022/03/16 06:45:27;;;;;;;155.10;46.13;;;;;;;2.95;83.51;102901.63;5051386;28;21024;-48
2022/03/16 06:47:56;;;;;;;128.40;43.53;;;;;;;3.00;84.57;102899.53;5051491;28;20452;-44
2022/03/16 06:50:24;;;;;;;142.80;44.37;;;;;;;3.11;84.11;102902.34;5050965;28;20471;-44
2022/03/16 06:52:54;;;;;;;120.77;42.37;;;;;;;3.18;86.56;102913.34;5051933;28;20805;-43
2022/03/16 06:55:22;;;;;;;169.10;46.40;;;;;;;3.22;87.02;102913.09;5051450;28;20526;-47
2022/03/16 06:57:52;;;;;;;150.57;42.47;;;;;;;3.22;91.48;102913.09;5051339;28;20567;-46
2022/03/16 07:00:19;;;;;;;148.27;42.27;;;;;;;3.27;90.83;102907.50;5050732;28;20870;-43
2022/03/16 07:02:52;;;;;;;160.53;42.50;;;;;;;3.23;92.78;102920.03;5051370;28;20457;-45
2022/03/16 07:05:20;;;;;;;117.00;40.07;;;;;;;3.30;92.53;102923.13;5051553;28;20461;-44
2022/03/16 07:07:49;;;;;;;119.30;44.73;;;;;;;3.32;93.11;102926.50;5051489;28;20463;-46
2022/03/16 07:10:17;;;;;;;92.97;40.63;;;;;;;3.40;92.92;102928.69;5050561;28;21001;-46
2022/03/16 07:12:45;;;;;;;130.40;43.60;;;;;;;3.49;92.33;102923.69;5051172;28;20427;-43
2022/03/16 07:15:14;;;;;;;144.33;44.43;;;;;;;3.45;93.99;102916.91;5051313;28;20826;-43
2022/03/16 07:17:42;;;;;;;181.60;51.10;;;;;;;3.47;94.84;102920.28;5050994;28;20471;-45
2022/03/16 07:20:11;;;;;;;58.93;38.40;;;;;;;3.50;94.84;102925.34;5050561;28;20490;-44
2022/03/16 07:22:39;;;;;;;64.93;39.50;;;;;;;3.62;93.50;102934.28;5051293;28;20521;-45
2022/03/16 07:25:20;;;;;;;215.20;58.47;;;;;;;3.76;92.56;102936.88;5051125;28;20439;-45
2022/03/16 07:27:49;;;;;;;123.33;46.50;;;;;;;3.76;95.20;102937.72;5051190;28;20451;-47
2022/03/16 07:30:19;;;;;;;55.47;40.13;;;;;;;3.86;95.23;102928.25;5050270;28;20542;-45
2022/03/16 07:32:47;;;;;;;80.03;41.40;;;;;;;3.89;95.68;102929.84;5054310;28;20534;-47
2022/03/16 07:35:15;;;;;;;91.07;42.60;;;;;;;3.89;96.70;102937.78;5055083;28;20435;-44
2022/03/16 07:37:43;;;;;;;47.77;39.40;;;;;;;4.04;95.40;102935.91;5054931;28;20545;-49
2022/03/16 07:40:11;;;;;;;72.70;40.50;;;;;;;4.11;95.89;102934.56;5054209;28;21159;-47
2022/03/16 07:42:39;;;;;;;120.87;41.27;;;;;;;4.04;97.96;102928.84;5054382;28;20497;-45
2022/03/16 07:45:07;;;;;;;86.97;41.30;;;;;;;4.09;97.27;102925.91;5054597;28;21144;-45
2022/03/16 07:47:36;;;;;;;83.20;41.13;;;;;;;4.20;96.37;102932.19;5054854;28;21138;-44
2022/03/16 07:50:07;;;;;;;92.20;40.70;;;;;;;4.15;97.75;102923.69;5054136;28;20463;-43
2022/03/16 07:52:35;;;;;;;77.00;42.20;;;;;;;4.12;98.31;102926.53;5054502;28;20518;-48
2022/03/16 07:55:02;;;;;;;55.67;40.03;;;;;;;4.12;97.95;102926.53;5054736;28;20534;-45
2022/03/16 07:57:30;;;;;;;78.33;43.60;;;;;;;4.26;97.37;102934.41;5054413;28;21068;-43
2022/03/16 07:59:58;;;;;;;56.07;38.70;;;;;;;4.44;96.00;102932.31;5053879;28;20546;-43
2022/03/16 08:02:27;;;;;;;67.93;40.30;;;;;;;4.39;98.52;102932.63;5054076;28;20441;-43
2022/03/16 08:04:58;;;;;;;70.60;39.27;;;;;;;4.43;98.59;102942.03;5054410;28;20431;-46
2022/03/16 08:07:26;;;;;;;116.53;43.87;;;;;;;4.47;98.40;102935.63;5054294;28;20521;-46
2022/03/16 08:09:54;;;;;;;73.40;38.87;;;;;;;4.45;99.95;102936.63;5054013;28;20542;-47
2022/03/16 08:12:22;;;;;;;62.67;41.27;;;;;;;4.59;99.26;102939.22;5054359;28;20864;-45
2022/03/16 08:14:50;;;;;;;61.23;40.83;;;;;;;4.58;99.74;102934.88;5054118;28;20461;-45
2022/03/16 08:17:18;;;;;;;70.90;40.50;;;;;;;4.42;100.00;102942.16;5053991;28;20525;-46
2022/03/16 08:19:45;;;;;;;43.73;39.33;;;;;;;4.45;100.00;102934.00;5053636;28;20459;-44
2022/03/16 08:22:24;;;;;;;62.37;39.23;;;;;;;4.52;99.78;102939.72;5053854;28;20433;-44
2022/03/16 08:24:51;;;;;;;41.97;37.33;;;;;;;4.45;99.68;102940.13;5054336;28;20433;-44
2022/03/16 08:27:20;;;;;;;43.00;36.80;;;;;;;4.55;100.00;102937.72;5054137;28;20428;-47
2022/03/16 08:29:48;;;;;;;39.30;35.20;;;;;;;4.57;100.00;102935.00;5053387;28;20550;-46
2022/03/16 08:32:17;;;;;;;39.67;36.23;;;;;;;4.64;99.86;102944.16;5053602;28;20534;-43
2022/03/16 08:34:45;;;;;;;38.70;35.10;;;;;;;4.70;99.86;102941.97;5053741;28;21004;-44
2022/03/16 08:37:13;;;;;;;41.93;34.93;;;;;;;4.64;100.00;102936.25;5053915;28;20558;-46
2022/03/16 08:39:42;;;;;;;39.57;36.43;;;;;;;4.80;99.84;102936.91;5053262;28;20554;-44
2022/03/16 08:42:12;;;;;;;42.50;39.03;;;;;;;4.83;99.94;102940.19;5053467;28;20805;-46
2022/03/16 08:44:40;;;;;;;41.27;37.70;;;;;;;4.85;100.00;102938.25;5052834;28;20469;-44
2022/03/16 08:47:10;;;;;;;46.70;39.70;;;;;;;4.81;100.00;102933.28;5053492;28;20795;-49
2022/03/16 08:49:38;;;;;;;41.20;37.70;;;;;;;4.80;100.00;102944.81;5053070;28;20466;-43
2022/03/16 08:52:07;;;;;;;41.60;38.03;;;;;;;4.95;100.00;102949.06;5053283;28;20478;-44
2022/03/16 08:54:35;;;;;;;41.13;37.47;;;;;;;5.07;100.00;102952.63;5053491;28;20822;-46
2022/03/16 08:57:05;;;;;;;43.20;39.00;;;;;;;5.03;100.00;102955.50;5053281;28;20481;-45
2022/03/16 08:59:32;;;;;;;45.50;41.30;;;;;;;5.08;100.00;102949.06;5052779;28;20566;-43
2022/03/16 09:02:00;;;;;;;43.67;39.53;;;;;;;5.15;100.00;102953.78;5053078;28;20522;-43
2022/03/16 09:04:28;;;;;;;42.20;38.43;;;;;;;5.27;100.00;102963.50;5053354;28;20521;-45
2022/03/16 09:06:56;;;;;;;40.60;37.57;;;;;;;5.44;99.97;102960.50;5053193;28;20477;-43
2022/03/16 09:09:24;;;;;;;40.67;37.43;;;;;;;5.49;100.00;102952.25;5052744;28;20546;-44
2022/03/16 09:11:51;;;;;;;40.97;36.53;;;;;;;5.55;99.84;102954.47;5052985;28;20449;-44
2022/03/16 09:14:20;;;;;;;41.43;38.20;;;;;;;5.69;100.00;102945.50;5052863;28;20555;-45
2022/03/16 09:16:48;;;;;;;39.97;36.93;;;;;;;5.88;99.86;102967.09;5053263;28;20922;-43
2022/03/16 09:19:20;;;;;;;42.03;38.23;;;;;;;5.89;100.00;102968.75;5052643;28;20466;-45
2022/03/16 09:21:48;;;;;;;42.30;38.60;;;;;;;5.99;99.84;102969.78;5052885;28;20531;-51
2022/03/16 09:24:16;;;;;;;41.87;38.17;;;;;;;5.94;99.22;102966.63;5052835;28;20538;-46
2022/03/16 09:26:44;;;;;;;40.87;37.30;;;;;;;5.98;100.00;102966.28;5052727;28;20935;-47
2022/03/16 09:29:13;;;;;;;40.57;36.90;;;;;;;6.06;99.33;102979.81;5052220;28;20542;-43
2022/03/16 09:31:43;;;;;;;40.63;36.77;;;;;;;6.10;99.71;102983.94;5052837;28;20530;-46
2022/03/16 09:34:11;;;;;;;41.40;37.97;;;;;;;6.23;99.54;102994.47;5052664;28;20505;-44
2022/03/16 09:36:42;;;;;;;41.80;38.10;;;;;;;6.29;98.65;102995.81;5052592;28;21033;-44
2022/03/16 09:39:10;;;;;;;40.80;37.27;;;;;;;6.27;98.24;102995.94;5052128;28;20517;-46
2022/03/16 09:41:38;;;;;;;42.00;38.33;;;;;;;6.19;97.84;103003.59;5052246;28;20941;-43
2022/03/16 09:44:06;;;;;;;44.60;40.60;;;;;;;6.35;98.35;103004.16;5052234;28;20635;-44
2022/03/16 09:46:36;;;;;;;42.30;38.53;;;;;;;6.30;97.90;102998.34;5052426;28;20530;-47
2022/03/16 09:49:06;;;;;;;40.47;37.47;;;;;;;6.29;97.87;103011.72;5051975;28;20451;-45
2022/03/16 09:51:38;;;;;;;39.60;36.40;;;;;;;6.46;98.31;103013.94;5052198;28;20918;-45
2022/03/16 09:54:07;;;;;;;41.37;37.23;;;;;;;6.48;98.40;103007.56;5052282;28;20451;-45
2022/03/16 09:56:35;;;;;;;44.57;40.43;;;;;;;6.45;97.57;103010.44;5052197;28;21028;-49
2022/03/16 09:59:03;;;;;;;42.00;38.23;;;;;;;6.48;97.57;103010.22;5051848;28;20467;-45
2022/03/16 10:01:35;;;;;;;45.47;41.43;;;;;;;6.39;97.53;103015.38;5052065;28;20433;-47
2022/03/16 10:04:06;;;;;;;41.57;37.97;;;;;;;6.27;96.97;103011.00;5052223;28;20451;-43
2022/03/16 10:06:36;;;;;;;38.70;35.30;;;;;;;6.07;97.20;103020.38;5052117;28;20434;-45
2022/03/16 10:15:05;;;;;;;42.27;38.70;;;;;;;6.15;97.28;103027.78;5051942;28;20445;-44
2022/03/16 10:17:45;;;;;;;35.63;33.00;;;;;;;6.08;96.91;103025.59;5052011;28;20423;-44
2022/03/16 10:20:30;;;;;;;32.13;30.10;;;;;;;5.84;97.13;103013.25;5051217;28;20512;-48
2022/03/16 10:23:01;;;;;;;36.07;32.93;;;;;;;5.88;98.30;103017.41;5051736;28;20443;-44
2022/03/16 10:25:30;;;;;;;38.27;35.13;;;;;;;5.81;98.62;103016.97;5052082;28;20867;-47
2022/03/16 10:28:13;;;;;;;35.90;32.97;;;;;;;5.78;98.72;103021.63;5051290;28;20459;-45
2022/03/16 10:30:56;;;;;;;35.93;33.30;;;;;;;5.71;98.56;103037.09;5051673;28;20415;-48
2022/03/16 10:33:27;;;;;;;35.67;32.87;;;;;;;5.87;98.07;103029.78;5051599;28;20459;-45
2022/03/16 10:36:00;;;;;;;33.63;31.50;;;;;;;5.85;97.37;103031.72;5051675;28;20514;-44
2022/03/16 10:38:28;;;;;;;34.23;31.60;;;;;;;6.06;97.24;103035.44;5051083;28;20467;-44
2022/03/16 10:41:10;;;;;;;33.80;31.40;;;;;;;6.31;96.87;103031.84;5051518;28;20432;-44
2022/03/16 10:46:35;;;;;;;32.93;30.53;;;;;;;6.19;94.31;103024.78;5044516;28;20518;-43
2022/03/16 10:49:04;;;;;;;32.60;30.40;;;;;;;6.13;95.93;103020.78;5051125;28;20483;-43
2022/03/16 10:51:34;;;;;;;32.60;30.60;;;;;;;6.04;95.25;103028.56;5051338;28;20446;-46
2022/03/16 10:54:23;;;;;;;33.53;31.20;;;;;;;5.92;96.05;103030.28;5051480;28;20444;-49
2022/03/16 10:56:53;;;;;;;32.60;30.40;;;;;;;5.99;96.62;103017.47;5051620;28;20517;-43
2022/03/16 10:59:26;;;;;;;33.13;30.93;;;;;;;5.95;96.51;103016.84;5051473;28;20459;-44
2022/03/16 11:02:01;;;;;;;33.73;31.47;;;;;;;6.13;96.01;103014.63;5051369;28;20809;-44
2022/03/16 11:04:31;;;;;;;31.10;29.30;;;;;;;6.12;95.58;103012.97;5051364;28;20784;-46
2022/03/16 11:07:01;;;;;;;32.53;30.47;;;;;;;6.21;96.61;103011.44;5053613;28;20441;-47
2022/03/16 11:09:28;;;;;;;31.20;29.13;;;;;;;6.30;95.78;103008.13;5054982;28;20463;-47
2022/03/16 11:14:43;;;;;;;33.27;30.77;;;;;;;6.36;93.84;103010.31;5055349;28;20546;-45
2022/03/16 11:17:11;;;;;;;34.27;31.67;;;;;;;6.43;94.74;103003.56;5055179;28;20510;-44
2022/03/16 11:19:39;;;;;;;32.87;30.37;;;;;;;6.27;93.84;102997.75;5054570;28;20471;-43
2022/03/16 11:22:12;;;;;;;34.10;31.60;;;;;;;6.20;95.16;102999.16;5055151;28;20530;-50
2022/03/16 11:24:44;;;;;;;34.30;31.90;;;;;;;6.26;95.61;102994.25;5055254;28;20818;-45
2022/03/16 11:27:40;;;;;;;34.03;31.70;;;;;;;6.17;95.23;102994.06;5055170;28;20458;-43
2022/03/16 11:30:19;;;;;;;33.03;30.50;;;;;;;5.93;95.53;103008.16;5054597;28;20459;-44
2022/03/16 11:32:47;;;;;;;33.77;31.23;;;;;;;6.16;96.88;103008.25;5055118;28;20545;-45